createdAt,value
2023-05-06T00:00:57.457Z,65.61
2023-05-06T00:03:24.059Z,66.33
2023-05-06T00:05:50.659Z,64.73
2023-05-06T00:08:17.091Z,64.31
2023-05-06T00:10:43.560Z,65.37
2023-05-06T00:13:10.066Z,63.39
2023-05-06T00:15:36.633Z,66.28
2023-05-06T00:18:03.284Z,66.20
2023-05-06T00:20:29.956Z,65.53
2023-05-06T00:22:56.384Z,67.26
2023-05-06T00:25:22.879Z,67.48
2023-05-06T00:27:49.389Z,66.49
2023-05-06T00:30:15.806Z,66.48
2023-05-06T00:32:42.440Z,64.56
2023-05-06T00:35:09.314Z,64.08
2023-05-06T00:37:35.951Z,63.69
2023-05-06T00:40:03.497Z,64.55
2023-05-06T00:42:30.013Z,63.70
2023-05-06T00:44:56.436Z,65.53
2023-05-06T00:47:23.339Z,63.74
2023-05-06T00:49:50.004Z,65.69
2023-05-06T00:52:17.577Z,66.54
2023-05-06T00:54:44.386Z,66.59
2023-05-06T00:57:10.828Z,66.16
2023-05-06T00:59:37.382Z,66.88
2023-05-06T01:02:04.455Z,67.35
2023-05-06T01:04:31.111Z,67.61
2023-05-06T01:06:57.625Z,67.72
2023-05-06T01:09:26.038Z,67.27
2023-05-06T01:11:59.691Z,67.72
2023-05-06T01:14:30.086Z,67.25
2023-05-06T01:17:00.176Z,66.55
2023-05-06T01:19:36.732Z,66.95
2023-05-06T01:22:05.020Z,66.51
2023-05-06T01:24:35.716Z,66.32
2023-05-06T01:27:02.164Z,67.52
2023-05-06T01:29:28.687Z,65.97
2023-05-06T01:31:59.254Z,65.08
2023-05-06T01:34:28.001Z,63.53
2023-05-06T01:37:00.434Z,64.37
2023-05-06T01:39:30.122Z,64.86
2023-05-06T01:41:57.530Z,64.83
2023-05-06T01:44:24.571Z,64.62
2023-05-06T01:46:51.718Z,63.79
2023-05-06T01:49:19.575Z,63.78
2023-05-06T01:51:50.054Z,63.45
2023-05-06T01:54:16.740Z,63.41
2023-05-06T01:56:43.282Z,65.39
2023-05-06T01:59:09.947Z,65.28
2023-05-06T02:01:36.432Z,65.14
2023-05-06T02:04:03.079Z,64.66
2023-05-06T02:06:29.555Z,65.60
2023-05-06T02:08:56.003Z,64.74
2023-05-06T02:11:22.450Z,67.68
2023-05-06T02:13:48.957Z,68.85
2023-05-06T02:16:15.424Z,68.11
2023-05-06T02:18:41.906Z,68.58
2023-05-06T02:21:09.641Z,68.11
2023-05-06T02:23:36.106Z,68.41
2023-05-06T02:26:02.575Z,66.92
2023-05-06T02:28:28.992Z,70.04
2023-05-06T02:30:58.807Z,70.03
2023-05-06T02:33:25.240Z,69.82
2023-05-06T02:35:51.676Z,69.81
2023-05-06T02:38:18.971Z,68.89
2023-05-06T02:40:45.400Z,69.66
2023-05-06T02:43:11.878Z,68.72
2023-05-06T02:45:38.333Z,69.56
2023-05-06T02:48:04.878Z,69.35
2023-05-06T02:50:31.340Z,69.90
2023-05-06T02:52:57.756Z,69.93
2023-05-06T02:55:24.161Z,69.39
2023-05-06T02:57:50.654Z,70.64
2023-05-06T03:00:17.409Z,70.84
2023-05-06T03:02:44.551Z,70.37
2023-05-06T03:05:11.212Z,71.06
2023-05-06T03:07:38.460Z,71.50
2023-05-06T03:10:05.103Z,71.21
2023-05-06T03:12:31.626Z,71.44
2023-05-06T03:14:58.020Z,70.82
2023-05-06T03:17:24.483Z,71.53
2023-05-06T03:19:51.088Z,71.24
2023-05-06T03:22:17.560Z,71.44
2023-05-06T03:24:43.975Z,71.21
2023-05-06T03:27:10.381Z,73.06
2023-05-06T03:29:36.790Z,69.46
2023-05-06T03:32:04.094Z,69.87
2023-05-06T03:34:30.692Z,71.31
2023-05-06T03:36:57.832Z,72.10
2023-05-06T03:39:24.693Z,72.42
2023-05-06T03:41:51.220Z,72.46
2023-05-06T03:44:17.647Z,72.61
2023-05-06T03:46:44.091Z,72.25
2023-05-06T03:49:10.731Z,71.40
2023-05-06T03:51:37.372Z,70.73
2023-05-06T03:54:04.202Z,70.19
2023-05-06T03:56:30.697Z,71.99
2023-05-06T03:58:57.168Z,72.73
2023-05-06T04:01:23.576Z,72.53
2023-05-06T04:03:50.134Z,72.11
2023-05-06T04:06:16.584Z,72.60
2023-05-06T04:08:43.019Z,72.51
2023-05-06T04:11:09.460Z,74.41
2023-05-06T04:13:35.902Z,74.19
2023-05-06T04:16:03.049Z,73.94
2023-05-06T04:18:29.562Z,73.90
2023-05-06T04:20:56.035Z,74.32
2023-05-06T04:23:22.551Z,73.83
2023-05-06T04:25:48.936Z,74.42
2023-05-06T04:28:18.883Z,73.79
2023-05-06T04:30:47.157Z,73.57
2023-05-06T04:33:13.947Z,73.30
2023-05-06T04:35:41.097Z,72.72
2023-05-06T04:38:07.555Z,71.93
2023-05-06T04:40:35.275Z,71.50
2023-05-06T04:43:02.997Z,71.21
2023-05-06T04:45:29.894Z,71.34
2023-05-06T04:47:56.490Z,71.31
2023-05-06T04:50:22.975Z,71.24
2023-05-06T04:52:49.388Z,70.91
2023-05-06T04:55:15.805Z,70.49
2023-05-06T04:57:42.340Z,70.26
2023-05-06T05:00:10.549Z,69.48
2023-05-06T05:02:37.386Z,69.11
2023-05-06T05:05:03.968Z,69.23
2023-05-06T05:07:30.468Z,69.05
2023-05-06T05:09:57.268Z,68.83
2023-05-06T05:12:23.671Z,68.10
2023-05-06T05:14:50.079Z,68.69
2023-05-06T05:17:16.605Z,68.00
2023-05-06T05:19:43.110Z,68.10
2023-05-06T05:22:09.540Z,67.16
2023-05-06T05:24:36.050Z,66.98
2023-05-06T05:27:02.647Z,66.29
2023-05-06T05:29:29.072Z,66.28
2023-05-06T05:31:55.609Z,66.57
2023-05-06T05:34:22.034Z,66.00
2023-05-06T05:36:48.439Z,65.56
2023-05-06T05:39:14.889Z,65.64
2023-05-06T05:41:41.383Z,65.59
2023-05-06T05:44:07.790Z,65.12
2023-05-06T05:46:34.308Z,65.71
2023-05-06T05:49:00.918Z,65.85
2023-05-06T05:51:27.320Z,65.88
2023-05-06T05:53:53.717Z,65.38
2023-05-06T05:56:20.677Z,64.92
2023-05-06T05:58:47.512Z,65.27
2023-05-06T06:01:14.645Z,66.28
2023-05-06T06:03:41.721Z,67.28
2023-05-06T06:06:08.508Z,66.76
2023-05-06T06:08:35.124Z,66.16
2023-05-06T06:11:05.814Z,65.61
2023-05-06T06:13:32.446Z,66.18
2023-05-06T06:15:59.566Z,65.69
2023-05-06T06:18:26.078Z,66.03
2023-05-06T06:20:53.479Z,66.34
2023-05-06T06:23:20.965Z,65.83
2023-05-06T06:25:47.472Z,66.12
2023-05-06T06:28:13.879Z,66.66
2023-05-06T06:30:40.890Z,66.28
2023-05-06T06:33:07.584Z,66.76
2023-05-06T06:35:34.976Z,67.68
2023-05-06T06:38:01.583Z,68.34
2023-05-06T06:40:28.116Z,68.66
2023-05-06T06:42:54.619Z,68.12
2023-05-06T06:45:21.097Z,68.99
2023-05-06T06:47:47.581Z,67.45
2023-05-06T06:50:14.123Z,68.24
2023-05-06T06:52:40.590Z,69.11
2023-05-06T06:55:07.275Z,69.32
2023-05-06T06:57:33.671Z,69.19
2023-05-06T07:00:00.150Z,68.92
2023-05-06T07:02:26.676Z,68.58
2023-05-06T07:04:53.619Z,69.14
2023-05-06T07:07:20.061Z,69.32
2023-05-06T07:09:46.484Z,68.60
2023-05-06T07:12:13.023Z,68.67
2023-05-06T07:14:39.504Z,68.22
2023-05-06T07:17:06.111Z,68.41
2023-05-06T07:19:32.558Z,67.68
2023-05-06T07:21:59.031Z,67.29
2023-05-06T07:24:25.469Z,67.26
2023-05-06T07:26:51.882Z,66.52
2023-05-06T07:29:18.325Z,66.55
2023-05-06T07:31:44.757Z,66.45
2023-05-06T07:34:11.400Z,65.67
2023-05-06T07:36:40.916Z,65.70
2023-05-06T07:39:07.710Z,64.55
2023-05-06T07:41:34.196Z,64.65
2023-05-06T07:44:00.813Z,63.80
2023-05-06T07:46:27.348Z,63.09
2023-05-06T07:48:53.818Z,62.84
2023-05-06T07:51:20.528Z,62.71
2023-05-06T07:53:46.964Z,62.10
2023-05-06T07:56:13.412Z,61.76
2023-05-06T07:58:39.868Z,60.53
2023-05-06T08:01:06.596Z,60.74
2023-05-06T08:03:33.382Z,59.72
2023-05-06T08:06:00.255Z,60.07
2023-05-06T08:08:28.150Z,59.26
2023-05-06T08:10:58.267Z,59.57
2023-05-06T08:13:25.144Z,58.31
2023-05-06T08:15:51.928Z,57.67
2023-05-06T08:18:22.944Z,57.12
2023-05-06T08:20:51.241Z,57.26
2023-05-06T08:23:17.711Z,56.09
2023-05-06T08:25:44.181Z,56.46
2023-05-06T08:28:10.640Z,56.12
2023-05-06T08:30:37.059Z,54.78
2023-05-06T08:33:03.712Z,54.62
2023-05-06T08:35:30.172Z,55.19
2023-05-06T08:37:56.612Z,54.34
2023-05-06T08:40:24.176Z,54.86
2023-05-06T08:42:50.850Z,55.28
2023-05-06T08:45:17.646Z,55.03
2023-05-06T08:47:44.265Z,54.95
2023-05-06T08:50:11.111Z,55.02
2023-05-06T08:52:38.297Z,55.85
2023-05-06T08:55:05.331Z,56.03
2023-05-06T08:57:32.663Z,55.91
2023-05-06T08:59:59.379Z,55.49
2023-05-06T09:02:26.241Z,55.21
2023-05-06T09:04:53.682Z,54.26
2023-05-06T09:07:23.857Z,53.06
2023-05-06T09:09:51.211Z,51.44
2023-05-06T09:12:17.621Z,50.04
2023-05-06T09:14:44.142Z,51.46
2023-05-06T09:17:28.298Z,49.26
2023-05-06T09:19:56.972Z,48.62
2023-05-06T09:22:24.162Z,50.28
2023-05-06T09:24:57.069Z,49.40
2023-05-06T09:27:25.073Z,48.93
2023-05-06T09:30:05.194Z,48.88
2023-05-06T09:32:32.085Z,50.49
2023-05-06T09:34:58.570Z,48.18
2023-05-06T09:37:26.519Z,50.25
2023-05-06T09:39:54.587Z,49.78
2023-05-06T09:42:25.325Z,50.43
2023-05-06T09:44:53.924Z,50.60
2023-05-06T09:47:33.101Z,50.74
2023-05-06T09:50:00.830Z,50.94
2023-05-06T09:52:27.717Z,50.74
2023-05-06T09:54:54.879Z,51.10
2023-05-06T09:57:22.244Z,51.85
2023-05-06T09:59:49.340Z,51.38
2023-05-06T10:02:16.347Z,51.61
2023-05-06T10:04:43.736Z,50.82
2023-05-06T10:07:12.829Z,51.67
2023-05-06T10:09:40.662Z,50.97
2023-05-06T10:12:08.646Z,49.46
2023-05-06T10:14:38.109Z,51.31
2023-05-06T10:17:09.153Z,51.11
2023-05-06T10:19:36.559Z,51.25
2023-05-06T10:22:08.913Z,50.92
2023-05-06T10:24:45.503Z,50.30
2023-05-06T10:27:12.250Z,50.23
2023-05-06T10:29:38.724Z,49.13
2023-05-06T10:32:07.205Z,49.11
2023-05-06T10:34:37.461Z,49.26
2023-05-06T10:37:04.988Z,48.83
2023-05-06T10:39:32.026Z,48.88
2023-05-06T10:41:58.489Z,48.30
2023-05-06T10:44:45.059Z,49.13
2023-05-06T10:47:12.499Z,49.22
2023-05-06T10:49:39.111Z,49.24
2023-05-06T10:52:14.937Z,47.99
2023-05-06T10:54:51.592Z,47.66
2023-05-06T10:57:18.385Z,46.68
2023-05-06T10:59:46.639Z,46.00
2023-05-06T11:02:13.671Z,47.43
2023-05-06T11:04:40.317Z,48.22
2023-05-06T11:07:11.229Z,48.11
2023-05-06T11:09:56.310Z,48.37
2023-05-06T11:12:22.731Z,49.05
2023-05-06T11:14:49.369Z,48.97
2023-05-06T11:17:33.157Z,48.60
2023-05-06T11:20:18.965Z,48.24
2023-05-06T11:22:45.650Z,48.66
2023-05-06T11:25:12.321Z,48.59
2023-05-06T11:27:38.778Z,48.61
2023-05-06T11:30:05.550Z,48.99
2023-05-06T11:32:33.059Z,49.65
2023-05-06T11:34:59.589Z,48.40
2023-05-06T11:37:26.794Z,49.13
2023-05-06T11:39:53.291Z,49.57
2023-05-06T11:42:27.018Z,48.91
2023-05-06T11:44:55.161Z,48.27
2023-05-06T11:47:22.789Z,47.61
2023-05-06T11:49:53.807Z,46.76
2023-05-06T11:52:23.188Z,46.43
2023-05-06T11:54:51.125Z,47.57
2023-05-06T11:57:19.362Z,46.76
2023-05-06T11:59:45.944Z,46.69
2023-05-06T12:02:13.914Z,46.07
2023-05-06T12:04:41.783Z,45.56
2023-05-06T12:07:09.139Z,44.04
2023-05-06T12:09:37.113Z,45.01
2023-05-06T12:12:04.343Z,43.96
2023-05-06T12:14:30.930Z,43.69
2023-05-06T12:16:57.529Z,43.29
2023-05-06T12:19:24.313Z,43.77
2023-05-06T12:21:50.736Z,43.05
2023-05-06T12:24:26.845Z,43.22
2023-05-06T12:26:53.287Z,43.20
2023-05-06T12:29:19.733Z,44.11
2023-05-06T12:31:47.382Z,43.00
2023-05-06T12:34:14.759Z,42.34
2023-05-06T12:36:42.206Z,42.17
2023-05-06T12:39:09.516Z,41.09
2023-05-06T12:41:39.773Z,41.97
2023-05-06T12:44:25.701Z,42.23
2023-05-06T12:46:54.822Z,40.71
2023-05-06T12:49:21.557Z,42.23
2023-05-06T12:52:04.200Z,43.15
2023-05-06T12:54:31.490Z,42.52
2023-05-06T12:56:57.966Z,43.08
2023-05-06T12:59:24.777Z,43.90
2023-05-06T13:01:51.239Z,43.01
2023-05-06T13:04:17.658Z,45.43
2023-05-06T13:06:44.158Z,47.78
2023-05-06T13:09:11.413Z,47.52
2023-05-06T13:11:39.032Z,50.90
2023-05-06T13:14:05.454Z,50.68
2023-05-06T13:16:32.380Z,50.40
2023-05-06T13:18:59.152Z,52.06
2023-05-06T13:21:25.546Z,50.93
2023-05-06T13:23:51.946Z,51.91
2023-05-06T13:26:18.727Z,52.11
2023-05-06T13:28:45.186Z,50.87
2023-05-06T13:31:11.664Z,49.95
2023-05-06T13:33:38.529Z,49.02
2023-05-06T13:36:05.634Z,47.35
2023-05-06T13:38:32.361Z,47.02
2023-05-06T13:40:58.849Z,44.30
2023-05-06T13:43:25.294Z,43.86
2023-05-06T13:45:51.957Z,42.85
2023-05-06T13:48:18.413Z,44.97
2023-05-06T13:50:48.802Z,41.60
2023-05-06T13:53:15.249Z,44.85
2023-05-06T13:55:41.966Z,43.94
2023-05-06T13:58:08.802Z,45.55
2023-05-06T14:00:36.236Z,45.14
2023-05-06T14:03:02.750Z,45.40
2023-05-06T14:05:29.379Z,45.47
2023-05-06T14:07:55.935Z,45.83
2023-05-06T14:10:22.345Z,44.45
2023-05-06T14:12:48.818Z,44.02
2023-05-06T14:15:15.246Z,43.00
2023-05-06T14:17:41.748Z,43.59
2023-05-06T14:20:11.791Z,42.47
2023-05-06T14:22:40.238Z,42.34
2023-05-06T14:25:07.013Z,42.66
2023-05-06T14:27:33.599Z,40.64
2023-05-06T14:30:01.689Z,42.50
2023-05-06T14:32:28.158Z,43.04
2023-05-06T14:34:54.612Z,41.34
2023-05-06T14:37:20.991Z,39.99
2023-05-06T14:39:47.421Z,38.87
2023-05-06T14:42:13.921Z,41.06
2023-05-06T14:44:40.405Z,41.51
2023-05-06T14:47:06.850Z,37.62
2023-05-06T14:49:33.282Z,38.04
2023-05-06T14:51:59.697Z,37.90
2023-05-06T14:54:26.866Z,38.97
2023-05-06T14:56:53.337Z,39.85
2023-05-06T14:59:19.844Z,39.42
2023-05-06T15:01:46.298Z,40.36
2023-05-06T15:04:12.824Z,39.85
2023-05-06T15:06:39.265Z,39.37
2023-05-06T15:09:05.846Z,38.48
2023-05-06T15:11:32.357Z,38.84
2023-05-06T15:13:58.811Z,39.01
2023-05-06T15:16:25.403Z,39.12
2023-05-06T15:18:51.829Z,52.04
2023-05-06T15:21:18.264Z,52.22
2023-05-06T15:23:46.369Z,61.42
2023-05-06T15:26:12.793Z,69.42
2023-05-06T15:28:39.304Z,76.26
2023-05-06T15:31:05.868Z,81.76
2023-05-06T15:33:32.368Z,87.20
2023-05-06T15:35:58.941Z,91.11
2023-05-06T15:38:25.477Z,93.77
2023-05-06T15:40:52.288Z,95.80
2023-05-06T15:43:23.611Z,93.19
2023-05-06T15:45:51.280Z,95.25
2023-05-06T15:48:17.737Z,91.57
2023-05-06T15:50:44.141Z,91.55
2023-05-06T15:53:11.410Z,90.85
2023-05-06T15:55:46.647Z,86.43
2023-05-06T15:58:16.125Z,82.77
2023-05-06T16:00:43.041Z,82.68
2023-05-06T16:03:11.994Z,82.19
2023-05-06T16:05:39.132Z,82.99
2023-05-06T16:08:05.759Z,81.19
2023-05-06T16:10:32.197Z,81.71
2023-05-06T16:12:58.730Z,79.97
2023-05-06T16:15:25.184Z,79.10
2023-05-06T16:17:51.616Z,78.89
2023-05-06T16:20:18.124Z,78.86
2023-05-06T16:22:49.537Z,77.11
2023-05-06T16:25:16.183Z,75.96
2023-05-06T16:27:42.593Z,76.12
2023-05-06T16:30:09.898Z,75.78
2023-05-06T16:32:36.511Z,75.92
2023-05-06T16:35:03.010Z,75.26
2023-05-06T16:37:29.507Z,74.95
2023-05-06T16:39:56.025Z,77.99
2023-05-06T16:42:22.556Z,78.56
2023-05-06T16:44:48.991Z,77.45
2023-05-06T16:47:16.026Z,81.42
2023-05-06T16:49:42.530Z,80.21
2023-05-06T16:52:08.947Z,81.33
2023-05-06T16:54:35.400Z,81.10
2023-05-06T16:57:03.401Z,81.46
2023-05-06T16:59:30.165Z,82.06
2023-05-06T17:01:56.592Z,83.47
2023-05-06T17:04:24.688Z,83.97
2023-05-06T17:06:51.259Z,84.31
2023-05-06T17:09:17.734Z,84.11
2023-05-06T17:11:44.236Z,84.09
2023-05-06T17:14:11.435Z,84.71
2023-05-06T17:16:38.519Z,85.18
2023-05-06T17:19:05.000Z,85.46
2023-05-06T17:21:31.917Z,85.35
2023-05-06T17:23:58.716Z,84.91
2023-05-06T17:26:25.186Z,85.39
2023-05-06T17:28:51.636Z,85.41
2023-05-06T17:31:18.483Z,84.48
2023-05-06T17:33:45.171Z,84.57
2023-05-06T17:36:16.113Z,84.78
2023-05-06T17:38:42.944Z,84.96
2023-05-06T17:41:09.350Z,84.17
2023-05-06T17:43:35.945Z,84.99
2023-05-06T17:46:02.428Z,84.94
2023-05-06T17:48:28.897Z,84.59
2023-05-06T17:51:00.054Z,84.56
2023-05-06T17:53:26.491Z,85.44
2023-05-06T17:55:52.985Z,85.70
2023-05-06T17:58:19.499Z,85.44
2023-05-06T18:00:45.967Z,85.60
2023-05-06T18:03:12.495Z,85.09
2023-05-06T18:05:38.980Z,84.78
2023-05-06T18:08:06.677Z,84.12
2023-05-06T18:10:33.157Z,84.18
2023-05-06T18:12:59.706Z,82.70
2023-05-06T18:15:26.218Z,85.09
2023-05-06T18:17:52.676Z,86.30
2023-05-06T18:20:19.199Z,87.36
2023-05-06T18:22:46.369Z,87.83
2023-05-06T18:25:13.053Z,87.71
2023-05-06T18:27:39.790Z,87.81
2023-05-06T18:30:06.658Z,87.69
2023-05-06T18:32:33.969Z,88.30
2023-05-06T18:35:00.596Z,88.11
2023-05-06T18:37:29.947Z,88.43
2023-05-06T18:39:56.491Z,87.98
2023-05-06T18:42:23.204Z,87.77
2023-05-06T18:44:52.566Z,87.80
2023-05-06T18:47:19.807Z,87.51
2023-05-06T18:49:46.248Z,87.11
2023-05-06T18:52:14.866Z,87.08
2023-05-06T18:54:41.509Z,87.55
2023-05-06T18:57:08.185Z,87.44
2023-05-06T18:59:34.665Z,88.77
2023-05-06T19:02:01.947Z,89.14
2023-05-06T19:04:29.748Z,89.78
2023-05-06T19:06:56.268Z,90.27
2023-05-06T19:09:22.659Z,90.38
2023-05-06T19:11:49.065Z,91.06
2023-05-06T19:14:15.602Z,90.74
2023-05-06T19:16:42.061Z,90.51
2023-05-06T19:19:08.541Z,91.43
2023-05-06T19:21:35.173Z,91.91
2023-05-06T19:24:01.646Z,91.80
2023-05-06T19:26:28.316Z,91.11
2023-05-06T19:28:54.724Z,91.85
2023-05-06T19:31:21.215Z,92.13
2023-05-06T19:33:47.724Z,91.28
2023-05-06T19:36:14.132Z,90.36
2023-05-06T19:38:40.611Z,91.58
2023-05-06T19:41:08.446Z,91.84
2023-05-06T19:43:40.170Z,91.60
2023-05-06T19:46:06.889Z,91.98
2023-05-06T19:48:35.547Z,91.33
2023-05-06T19:51:03.316Z,91.81
2023-05-06T19:53:29.726Z,91.88
2023-05-06T19:55:57.920Z,91.34
2023-05-06T19:58:24.341Z,91.44
2023-05-06T20:00:50.846Z,90.45
2023-05-06T20:03:17.372Z,89.57
2023-05-06T20:05:43.824Z,89.54
2023-05-06T20:08:11.377Z,89.89
2023-05-06T20:10:38.368Z,90.71
2023-05-06T20:13:05.036Z,90.18
2023-05-06T20:15:31.896Z,89.95
2023-05-06T20:17:58.426Z,89.49
2023-05-06T20:20:32.036Z,89.71
2023-05-06T20:22:58.438Z,89.84
2023-05-06T20:25:25.032Z,90.01
2023-05-06T20:27:51.500Z,90.02
2023-05-06T20:30:17.979Z,89.80
2023-05-06T20:32:46.980Z,89.71
2023-05-06T20:35:13.521Z,89.94
2023-05-06T20:37:41.264Z,89.48
2023-05-06T20:40:08.021Z,90.16
2023-05-06T20:42:34.544Z,90.13
2023-05-06T20:45:01.152Z,90.18
2023-05-06T20:47:27.673Z,89.60
2023-05-06T20:49:54.474Z,89.82
2023-05-06T20:52:21.799Z,90.75
2023-05-06T20:54:48.508Z,91.11
2023-05-06T20:57:15.625Z,90.71
2023-05-06T20:59:42.222Z,90.35
2023-05-06T21:02:09.378Z,89.27
2023-05-06T21:04:35.886Z,88.29
2023-05-06T21:07:02.285Z,87.70
2023-05-06T21:09:29.026Z,87.24
2023-05-06T21:11:56.125Z,87.69
2023-05-06T21:14:24.827Z,87.52
2023-05-06T21:16:52.034Z,87.89
2023-05-06T21:19:18.702Z,88.16
2023-05-06T21:21:45.231Z,87.51
2023-05-06T21:24:12.148Z,87.34
2023-05-06T21:26:38.949Z,87.04
2023-05-06T21:29:05.492Z,87.61
2023-05-06T21:31:31.991Z,87.72
2023-05-06T21:33:58.786Z,87.49
2023-05-06T21:36:26.038Z,88.61
2023-05-06T21:38:59.910Z,88.93
2023-05-06T21:41:26.484Z,90.16
2023-05-06T21:43:52.893Z,89.91
2023-05-06T21:46:19.366Z,90.37
2023-05-06T21:48:45.870Z,90.13
2023-05-06T21:51:12.265Z,90.46
2023-05-06T21:53:38.662Z,89.70
2023-05-06T21:56:05.197Z,88.76
2023-05-06T21:58:31.661Z,88.94
2023-05-06T22:00:58.069Z,88.90
2023-05-06T22:03:24.570Z,88.71
2023-05-06T22:05:51.281Z,88.36
2023-05-06T22:08:17.702Z,87.92
2023-05-06T22:10:44.246Z,88.44
2023-05-06T22:13:11.030Z,88.25
2023-05-06T22:15:37.608Z,88.10
2023-05-06T22:18:04.240Z,88.38
2023-05-06T22:20:30.701Z,88.34
2023-05-06T22:22:57.092Z,88.14
2023-05-06T22:25:23.563Z,88.07
2023-05-06T22:27:50.006Z,89.50
2023-05-06T22:30:16.465Z,89.15
2023-05-06T22:32:42.962Z,88.99
2023-05-06T22:35:09.782Z,89.11
2023-05-06T22:37:36.402Z,88.50
2023-05-06T22:40:02.983Z,88.94
2023-05-06T22:42:29.400Z,88.38
2023-05-06T22:44:55.843Z,87.70
2023-05-06T22:47:22.301Z,87.65
2023-05-06T22:49:48.706Z,88.62
2023-05-06T22:52:15.174Z,87.92
2023-05-06T22:54:41.578Z,87.44
2023-05-06T22:57:07.976Z,88.14
2023-05-06T22:59:34.410Z,88.19
2023-05-06T23:02:01.256Z,87.54
2023-05-06T23:04:27.702Z,86.77
2023-05-06T23:06:54.099Z,87.50
2023-05-06T23:09:20.591Z,88.16
2023-05-06T23:11:47.045Z,87.58
2023-05-06T23:14:13.469Z,87.24
2023-05-06T23:16:39.980Z,87.29
2023-05-06T23:19:06.683Z,87.19
2023-05-06T23:21:33.077Z,87.12
2023-05-06T23:23:59.566Z,87.19
2023-05-06T23:26:26.592Z,86.69
2023-05-06T23:28:52.957Z,86.77
2023-05-06T23:31:19.489Z,86.55
2023-05-06T23:33:45.982Z,86.64
2023-05-06T23:36:12.415Z,86.55
2023-05-06T23:38:38.816Z,86.55
2023-05-06T23:41:05.232Z,86.77
2023-05-06T23:43:31.645Z,86.67
2023-05-06T23:45:58.143Z,86.75
2023-05-06T23:48:24.585Z,86.15
2023-05-06T23:50:50.971Z,86.09
2023-05-06T23:53:17.452Z,85.88
2023-05-06T23:55:43.969Z,86.21
2023-05-06T23:58:10.404Z,85.46
